22ème Rallye Terre des Causses
Championnat de France des Rallyes sur Terre
1 3 MAURIN Julien/URAL Olivier Citroën DS3 WRC A 8W 9:43,5 92km/h 1
2 1 CUOQ Jean-Marie/GRANDEMANGE Marielle Citroën C4 WRC FA 8W 9:46,5 +00:03,0 +00:03,0 1
3 11 GILBERT Quentin/JAMOUL Renaud Skoda Fabia R5 R 5 10:00,3 +00:16,8 +00:13,8
4 2 BAUD Lionel/CRAEN Fabien Ford Focus WRC A 8W 10:00,8 +00:17,3 +00:00,5 1
5 14 FALCO Jean-Marc/BOUERI Jonathan Peugeot 208 T16 R 5 10:03,3 +00:19,8 +00:02,5 1
6 12 BERFA Jordan/AUGUSTIN Damien HUYNDAI i20 R5 R 5 10:07,0 +00:23,5 +00:03,7 1
7 4 DURBEC Thibault/RENUCCI Jacques-Julien Citroën DS3 WRC A 8W 10:07,2 +00:23,7 +00:00,2 1
8 9 FERAUD Cyrille/DUCHEMIN Aymeric Citroën C4 WRC FA 8W 10:07,3 +00:23,8 +00:00,1 1
9 18 PONS Xavier/ORIOL Julia Peugeot 208 T16 R 5 10:08,3 +00:24,8 +00:01,0
10 8 RAOUX Jean-Michel/MAGAT Laurent Citroën DS3 WRC A 8W 10:16,3 +00:32,8 +00:08,0 1
11 16 PETIT Jean-Eric/MAURIN Mathieu Ford Fiesta R5 R 5 10:25,0 +00:41,5 +00:08,7 1
12 19 MORDACQ Arnaud/RATIER Marie-Noelle Mitsubishi Lancer Evo9 N 4 10:25,5 +00:42,0 +00:00,5 1
13 5 CHAYNES Gary/TRIBOUT Christian Citroën C4 WRC FA 8W 10:28,0 +00:44,5 +00:02,5 1
14 7 CLOT Charles/LEON Thierry Ford Fiesta WRC A 8W 10:37,1 +00:53,6 +00:09,1 1
15 54 PELLIER Laurent/NEYRET-GIGOT Benoît Peugeot 208 VTI R 2 10:42,0 +00:58,5 +00:04,9 3
16 35 MORDACQ Laurent/MORTIER Hervé Mitsubishi Lancer Evo9 R 4 10:43,9 +01:00,4 +00:01,9 1
17 40 MARTI Christian/LAVIALE Jean-Marc Mitsubishi Lancer Evo9 N 4 10:47,0 +01:03,5 +00:03,1 1
18 60 LARIO Taisko/RYYNANEN Sami Peugeot 208 VTI R 2 10:47,0 +01:03,5 3
19 61 GAGO Diogo/DEL BARRIO GARCIA Rodolfo Peugeot 208 VTI R 2 10:48,1 +01:04,6 +00:01,1 3
20 17 FRAU Richard/GASTINEL Jean-Francois Ford Fiesta R5 R 5 10:50,1 +01:06,6 +00:02,0 1
21 59 RIBAUD Quentin/BALME Benoît Peugeot 208 VTI R 2 10:50,3 +01:06,8 +00:00,2 1 2 3
22 38 MOREL Jean-Luc/GIDEL Philippe Subaru Impreza WRX FN 4 10:50,4 +01:06,9 +00:00,1
23 57 LLARENA Efren/FERNANDEZ Sara Peugeot 208 VTI R 2 10:51,2 +01:07,7 +00:00,8 3
24 62 SAHILA Aki/SUORSA Rami Peugeot 208 VTI R 2 10:54,3 +01:10,8 +00:03,1 3
25 37 DESANGLES Yanis/THERON Nicolas Subaru Impreza WRX R 4 10:54,8 +01:11,3 +00:00,5
26 6 ROUSSET Eric/GOSSET Jean-David Citroën Xsara WRC FA 8W 10:55,9 +01:12,4 +00:01,1
27 50 VEYRARD Didier/TARDY Vincent Subaru Impreza STI FN 4 10:56,0 +01:12,5 +00:00,1
28 70 PINHEIRO Karl-Alexandre/LE FLOCH Franck Peugeot 208 VTI R 2 10:56,3 +01:12,8 +00:00,3 3
29 15 BESSON Jean-Pascal/ROISSAC Patrice Skoda Fabia R5 R 5 10:56,5 +01:13,0 +00:00,2 1
30 20 GAIDOZ Hervé/RICHARD François Subaru Impreza WRX FA 8 10:57,0 +01:13,5 +00:00,5 1
31 65 BOSCH Florentin/LAZZARINI Jean-Paul Peugeot 208 VTI R 2 10:58,0 +01:14,5 +00:01,0 3
32 10 "PIANO"/COTTU Paolo Subaru Impreza WRC FA 8W 10:59,4 +01:15,9 +00:01,4
33 21 GIRAUD Emmanuel/GIRAUD Grégory Mitsubishi Lancer Evo8 FA 8 11:00,0 +01:16,5 +00:00,6
34 76 COLNEY Thierry/FORTMANN Patrick Citroën DS3 R3 R 3 11:01,1 +01:17,6 +00:01,1 1 2
35 42 CONDAMINES Florian/DELMAS Cyril Subaru Impreza N 4 11:04,6 +01:21,1 +00:03,5
36 44 GUIGNARD Eric/MEFFRE Didier Subaru Impreza N 4 11:07,2 +01:23,7 +00:02,6
37 39 BENIER Thomas/PRASSE Cédric Subaru Impreza WRX N 4 11:08,0 +01:24,5 +00:00,8 1
38 63 WAGEMANS Joachim/DU PAN Anton Peugeot 208 VTI R 2 11:09,3 +01:25,8 +00:01,3 3
39 30 CHIAVARO Daniel/DUPANLOUP Alexandra Subaru Impreza Sti FA 8 11:11,2 +01:27,7 +00:01,9
40 52 JULIA David/AUBERTIN Ludovic Peugeot 206 Rc F2 14 11:13,6 +01:30,1 +00:02,4 1 2
41 72 TAVENEAU Sam/POINT Clément Peugeot 208 VTI R 2 11:14,1 +01:30,6 +00:00,5 3
42 36 SALIN Daniel/SALIN Brigitte Subaru Impreza WRX R 4 11:15,1 +01:31,6 +00:01,0
43 71 RAMBAUD Sébastien/RICOU Brice Peugeot 208 VTI R 2 11:17,5 +01:34,0 +00:02,4 3
44 83 MARCHAL Eddy/JOLE Damien Citroën Saxo T4 FA 6K 11:23,2 +01:39,7 +00:05,7 1
45 87 SALGUES Gilles/MOUYSSET Jérôme Citroën Saxo T4 FA 6K 11:27,8 +01:44,3 +00:04,6
46 64 HAIGH-SMITH Ashley/BURNS Niall Peugeot 208 VTI R 2 11:32,1 +01:48,6 +00:04,3 3
47 81 VIALLE Lilian/GHIRARDELLO Manuel Renault Clio R3 R 3 11:33,3 +01:49,8 +00:01,2 1 2
48 43 PUEL Gérard/PUEL Caroline Mitsubishi Lancer Evo8 FN 4 11:35,6 +01:52,1 +00:02,3
49 53 VITAL Jean-Pierre/DECOUZON Pierre Citroën Saxo VTS F2 13 11:36,2 +01:52,7 +00:00,6 1 2
50 103 TEVELLE Cédric/FACCIO Alexandra Peugeot 206 Rc FA 7 11:38,2 +01:54,7 +00:02,0
51 86 MARCOBAL Thierry/MARCOBAL-BASTIDE Cantin Citroën Saxo T4 FA 6K 11:39,0 +01:55,5 +00:00,8
52 46 LOPEZ Yannick/LOPEZ Brice Subaru Impreza WRX N 4 11:39,6 +01:56,1 +00:00,6
53 48 PRIOLO Laurent/DALMAS Yannick Mitsubishi Lancer Evo9 N 4 11:39,7 +01:56,2 +00:00,1
54 67 JAMET Jérémy/SECACHE Michaël Peugeot 208 VTI R 2 11:40,3 +01:56,8 +00:00,6 3
55 80 GUINCHARD Emmanuel/CHATELAIN Mickaël Peugeot 207 Rc R 3 11:42,2 +01:58,7 +00:01,9
56 116 RAYNAUD Gabriel/JULIEN William Seat Ibiza GTI F2 14 11:42,7 +01:59,2 +00:00,5 1 2
57 68 CUFFI Tommaso/BOSI Massimiliano Peugeot 208 VTI R 2 11:44,8 +02:01,3 +00:02,1 3
58 95 GOUY Quentin/THILLIEZ Quentin Citroën C2 R2 R 2 11:45,5 +02:02,0 +00:00,7
59 99 FOTIA Anthony/MILLET Kévin Ford Fiesta R2 R 2 11:46,0 +02:02,5 +00:00,5
60 97 MARGAILLAN Hugo/POUJOL Sébastien Ford Fiesta R2 R 2 11:50,7 +02:07,2 +00:04,7
61 90 COLOMBE Geoffroy/FABREGUE Régis Peugeot 206 XS FA 6K 11:53,0 +02:09,5 +00:02,3
62 132 SABATIER Florent/SANTIAGO Thomas Peugeot 106 S16 FA 6 11:53,4 +02:09,9 +00:00,4 1 2
63 66 MAISANO Brandon/PEBEYRE Pierre Peugeot 208 VTI R 2 11:54,1 +02:10,6 +00:00,7 3
64 91 BERTON Charlotte/TAILLANDIER Thomas Citroën Saxo T4 FA 6K 11:57,9 +02:14,4 +00:03,8
65 98 DEFANTE Romain/TEMPIER Romain Ford Fiesta R2 R 2 12:02,8 +02:19,3 +00:04,9
66 114 BOUZID Lilian/VERGNES Antony Peugeot 306 S16 F2 14 12:05,8 +02:22,3 +00:03,0
67 113 BLANCK Lionel/BLANCK Arnaud Peugeot 206 Rc F2 14 12:06,1 +02:22,6 +00:00,3
68 47 CAMPAGNOLI Gabriele/ARENA Nicola Subaru Impreza WRX N 4 12:06,1 +02:22,6
69 45 ECK Jean-Luc/ECK Aurélien Subaru Impreza N 4 12:16,3 +02:32,8 +00:10,2
70 94 JOUINES Jean/CHABBERT Martin Opel Adam Rally R FR2 12:18,3 +02:34,8 +00:02,0
71 96 PUVERIC Gilles/LE BORGNE Didier Peugeot 208 VTI R 2 12:19,6 +02:36,1 +00:01,3
72 123 BALMONET/MONICO Celia Peugeot 309 GTI F2 14 12:21,3 +02:37,8 +00:01,7
73 78 BOUCHET Guillaume/BLAMPEY Fabien Peugeot 207 Rc R 3 12:22,0 +02:38,5 +00:00,7
74 125 BELLIARDO Daniel/BRAQUET Jean-Baptiste Peugeot 306 S16 FN 3 12:22,3 +02:38,8 +00:00,3
75 88 QUARROZ Damien/VOLPI Cécile Citroën Saxo T4 FA 6K 12:26,1 +02:42,6 +00:03,8
76 126 VANTILLARD Jean-Marc/DARRAS Pascaline Peugeot 206 Rc FN 3 12:31,1 +02:47,6 +00:05,0
77 135 RAMEL Olivier/BODENMANN Jacques-Victor Peugeot 106 GT FA 6 12:33,7 +02:50,2 +00:02,6
78 89 CREPIN Maude/FRANCOIS Léa Citroën Saxo T4 FA 6K 12:33,8 +02:50,3 +00:00,1
79 118 SANHES Yves/SANHES Christine B.M.W. 318i Compact F2 14 12:34,2 +02:50,7 +00:00,4
80 117 ROUCOULY Mathieu/GILHODES Jean-Louis Peugeot 309 GTI 16S F2 14 12:34,6 +02:51,1 +00:00,4
81 119 MOULIN François/BONNET Dorine Renault Clio RS F2 14 12:38,9 +02:55,4 +00:04,3
82 77 DAZY Jean-Pierre/LOIZEAUX Didier Renault Clio R3 R 3 12:41,6 +02:58,1 +00:02,7 1 2
83 134 RALITE Christophe/ABBAL Marie Peugeot 106 S16 FA 6 12:44,2 +03:00,7 +00:02,6
84 115 MORARD Philippe/GROLIER Cédric Citroën ZX 16V F2 14 12:45,7 +03:02,2 +00:01,5
85 120 RIEU Vincent/DEIXONNE Charles Renault Clio Ragnotti F2 14 12:48,2 +03:04,7 +00:02,5
86 148 LATIEZE Yvan/GOUY Cindy Peugeot 106 S16 FN 2 12:48,3 +03:04,8 +00:00,1
87 150 VAILLE Mickaël/SAVA-LOPEZ Sabrina Peugeot 205 GTI FN 2 12:50,2 +03:06,7 +00:01,9
88 112 REGORD Hervé/REGORD Camille Peugeot 205 GTI F2 14 12:55,2 +03:11,7 +00:05,0 1 2
89 106 GELLUSSEAU Luc/DEJOUX Charly Peugeot 306 S16 FA 7 12:56,6 +03:13,1 +00:01,4
90 104 FRELAUT Yohann/CASSAGNADE Pascal Peugeot 206 Rc FA 7 13:00,9 +03:17,4 +00:04,3
91 145 BRISSON Eddy/MASSON Pascal Suzuki Swift FN 2 13:02,0 +03:18,5 +00:01,1
92 127 LESCURE Philippe/ESCAICH Bertrand Peugeot 306 S16 FN 3 13:03,4 +03:19,9 +00:01,4
93 146 DOLGOPYATOFF Damien/FRANCOIS Solene Suzuki Swift FN 2 13:03,7 +03:20,2 +00:00,3
94 122 VIDAL Marc/MONTARON Loïc Peugeot 309 GTI F2 14 13:07,8 +03:24,3 +00:04,1
95 136 FOURNIER Nicolas/VATTEAU Kévin Peugeot 206 XS F2 13 13:08,5 +03:25,0 +00:00,7
96 92 BRENIAUX Sébastien/JACQUES Anthony Peugeot 206 XS FA 6K 13:12,8 +03:29,3 +00:04,3
97 139 GELY Michel/VALENTIN Cédric Peugeot 206 XS F2 13 13:15,9 +03:32,4 +00:03,1
98 144 TODESCHINI Florent/PORCHERON Giovanni Dacia Logan F2 13 13:18,6 +03:35,1 +00:02,7
99 152 VUITTENEZ Victorien/COTE COLISSON Maxime Peugeot 106 XSI FN 1 13:19,3 +03:35,8 +00:00,7
100 142 BRENGUES Jean-Marie/BRENGUES Mélanie Peugeot 205 GTI F2 13 13:22,6 +03:39,1 +00:03,3
101 153 CEUGNET Sébastien/LUCON Pascal Peugeot 106 XSI FN 1 13:25,9 +03:42,4 +00:03,3
102 151 ROCHE Ivan/GREVOT Florian Peugeot 106 XSI F2 12 13:27,3 +03:43,8 +00:01,4 1 2
103 140 VAYSSE Adrien/LAURENS Clément Peugeot 106 S16 F2 13 13:30,2 +03:46,7 +00:02,9
104 133 CHOQUER Mickaël/GROULIER Vincent Peugeot 206 XS FA 6 13:31,7 +03:48,2 +00:01,5
105 26 GLEY Jean-Pierre/AUBANEL Aurélien B.M.W. 325 iX FA 8 13:34,9 +03:51,4 +00:03,2
106 110 CLEMENT Frédéric/COSTES François Peugeot 206 GT F2 14 13:38,1 +03:54,6 +00:03,2 1 2
107 108 GUILLON Jean-Luc/GUILLON Thibault Peugeot 206 GT FA 7 13:43,8 +04:00,3 +00:05,7
108 22 LOPEZ Etienne/MERCIER Marjorie Subaru Impreza WRX FA 8 13:46,2 +04:02,7 +00:02,4
109 154 BES Yves/LE PICHON Christelle Peugeot 106 XR F2 11 14:18,5 +04:35,0 +00:32,3
110 137 RAKOTOMALALA Andry/GORGET Chloé Peugeot 106 S16 F2 13 14:26,0 +04:42,5 +00:07,5
111 130 RESSOUCHE Charlotte/BARDOUX Pauline Ford Fiesta ST N 3 14:31,5 +04:48,0 +00:05,5
112 147 DI PAOLO Alain/MORILLON Frederika Peugeot 106 S16 FN 2 14:34,9 +04:51,4 +00:03,4
113 141 PICARD Erick/PONTILLE Hervé Dacia Logan F2 13 14:36,0 +04:52,5 +00:01,1
114 155 SOUBIROUX Vincent/VIGUIE Florian Renault Clio F2 11 16:18,0 +06:34,5 +01:42,0
115 105 GAUTHIER Bernard/BLANQUET Muriel Peugeot 306 S16 FA 7 27:39,2 +17:55,7 +11:21,2
Clt Equipage Voiture Gr/Cl Temps Ecart 1er Ecart préc. Catégories
Commentaires: © PatricK Soft  
(Temps forfaitaires=couleur bleue)
Classés:115

Epreuve: Groupe: Catégorie:

 
Retour
Classement ES9-Montsales - La Teulière (15.000 km)